createdAt,value
2019-03-31T00:02:04.353Z,19.57
2019-03-31T00:05:06.111Z,21.57
2019-03-31T00:08:08.037Z,25.77
2019-03-31T00:11:10.003Z,27.30
2019-03-31T00:14:17.128Z,23.73
2019-03-31T00:17:19.248Z,22.70
2019-03-31T00:20:21.435Z,21.93
2019-03-31T00:23:28.892Z,21.17
2019-03-31T00:26:30.889Z,21.93
2019-03-31T00:29:32.235Z,20.10
2019-03-31T00:32:34.276Z,20.03
2019-03-31T00:35:36.138Z,19.60
2019-03-31T00:38:38.252Z,18.60
2019-03-31T00:41:40.216Z,19.80
2019-03-31T00:44:42.155Z,20.23
2019-03-31T00:47:43.351Z,19.57
2019-03-31T00:50:45.431Z,19.13
2019-03-31T00:53:46.528Z,18.60
2019-03-31T00:56:49.096Z,18.60
2019-03-31T00:59:52.124Z,18.63
2019-03-31T01:02:54.119Z,18.77
2019-03-31T01:05:55.259Z,18.80
2019-03-31T01:08:57.812Z,19.00
2019-03-31T01:11:59.230Z,18.80
2019-03-31T01:15:07.554Z,18.30
2019-03-31T01:18:11.508Z,17.70
2019-03-31T01:21:13.712Z,20.47
2019-03-31T01:24:15.585Z,18.73
2019-03-31T01:27:18.195Z,18.13
2019-03-31T01:30:20.551Z,18.73
2019-03-31T01:33:22.224Z,19.03
2019-03-31T01:36:24.234Z,17.80
2019-03-31T01:39:26.988Z,18.30
2019-03-31T01:42:28.832Z,19.30
2019-03-31T01:45:30.599Z,19.10
2019-03-31T01:48:32.438Z,19.50
2019-03-31T01:51:34.578Z,18.90
2019-03-31T01:54:35.939Z,18.63
2019-03-31T01:57:36.908Z,18.67
2019-03-31T02:00:41.362Z,18.33
2019-03-31T02:03:43.341Z,17.90
2019-03-31T02:06:45.333Z,17.93
2019-03-31T02:09:46.568Z,18.67
2019-03-31T02:12:47.891Z,17.20
2019-03-31T02:15:50.075Z,18.30
2019-03-31T02:18:51.962Z,18.00
2019-03-31T02:21:53.137Z,18.40
2019-03-31T02:24:55.130Z,17.80
2019-03-31T02:27:57.131Z,18.80
2019-03-31T02:30:59.048Z,17.23
2019-03-31T02:34:00.163Z,18.40
2019-03-31T02:37:11.324Z,18.80
2019-03-31T02:40:13.424Z,18.13
2019-03-31T02:43:14.532Z,18.73
2019-03-31T02:46:15.899Z,18.00
2019-03-31T02:49:17.655Z,19.20
2019-03-31T02:52:20.028Z,18.30
2019-03-31T02:55:21.009Z,19.40
2019-03-31T02:58:32.055Z,19.67
2019-03-31T03:01:33.297Z,17.93
2019-03-31T03:04:35.320Z,17.90
2019-03-31T03:07:36.340Z,18.90
2019-03-31T03:10:46.503Z,18.70
2019-03-31T03:13:57.532Z,17.60
2019-03-31T03:16:58.613Z,18.17
2019-03-31T03:20:00.689Z,18.97
2019-03-31T03:23:02.791Z,18.50
2019-03-31T03:26:03.845Z,18.30
2019-03-31T03:29:05.932Z,18.13
2019-03-31T03:32:07.965Z,17.47
2019-03-31T03:35:10.089Z,18.03
2019-03-31T03:38:11.302Z,17.50
2019-03-31T03:41:12.385Z,17.10
2019-03-31T03:44:13.429Z,17.40
2019-03-31T03:47:14.470Z,17.77
2019-03-31T03:50:16.708Z,17.90
2019-03-31T03:53:18.722Z,18.07
2019-03-31T03:56:19.788Z,17.47
2019-03-31T03:59:21.133Z,17.33
2019-03-31T04:02:23.068Z,17.57
2019-03-31T04:05:25.150Z,17.10
2019-03-31T04:08:26.577Z,17.40
2019-03-31T04:11:28.677Z,17.13
2019-03-31T04:14:29.735Z,17.97
2019-03-31T04:17:40.885Z,17.57
2019-03-31T04:20:43.016Z,16.37
2019-03-31T04:23:44.194Z,17.30
2019-03-31T04:26:55.239Z,17.73
2019-03-31T04:29:56.477Z,17.80
2019-03-31T04:33:07.580Z,16.30
2019-03-31T04:36:09.665Z,16.83
2019-03-31T04:39:10.534Z,17.13
2019-03-31T04:42:21.509Z,16.27
2019-03-31T04:45:22.714Z,17.40
2019-03-31T04:48:24.680Z,18.13
2019-03-31T04:51:26.648Z,17.40
2019-03-31T04:54:28.696Z,18.30
2019-03-31T04:57:29.755Z,17.30
2019-03-31T05:00:30.927Z,17.17
2019-03-31T05:03:32.020Z,16.90
2019-03-31T05:06:34.161Z,16.87
2019-03-31T05:09:35.415Z,17.37
2019-03-31T05:12:36.353Z,17.60
2019-03-31T05:15:37.527Z,17.17
2019-03-31T05:18:48.558Z,17.00
2019-03-31T05:21:59.655Z,17.00
2019-03-31T05:25:00.919Z,17.20
2019-03-31T05:28:01.985Z,16.83
2019-03-31T05:31:03.117Z,16.80
2019-03-31T05:34:18.328Z,17.63
2019-03-31T05:37:09.229Z,16.90
2019-03-31T05:40:11.373Z,17.17
2019-03-31T05:43:13.279Z,16.80
2019-03-31T05:46:14.584Z,16.20
2019-03-31T05:49:16.501Z,16.87
2019-03-31T05:52:17.508Z,16.90
2019-03-31T05:55:19.696Z,17.20
2019-03-31T05:58:20.897Z,17.40
2019-03-31T06:01:23.103Z,17.10
2019-03-31T06:04:33.131Z,16.43
2019-03-31T06:07:27.128Z,17.37
2019-03-31T06:10:28.058Z,16.80
2019-03-31T06:13:30.149Z,17.23
2019-03-31T06:16:32.115Z,17.00
2019-03-31T06:19:34.243Z,16.87
2019-03-31T06:22:35.260Z,16.03
2019-03-31T06:25:46.299Z,16.90
2019-03-31T06:28:48.072Z,16.53
2019-03-31T06:31:49.044Z,16.50
2019-03-31T06:34:59.480Z,16.77
2019-03-31T06:38:01.517Z,15.73
2019-03-31T06:41:03.501Z,16.70
2019-03-31T06:44:04.727Z,16.70
2019-03-31T06:47:05.830Z,17.47
2019-03-31T06:50:07.243Z,16.53
2019-03-31T06:53:09.349Z,16.63
2019-03-31T06:56:11.352Z,16.63
2019-03-31T06:59:13.415Z,17.07
2019-03-31T07:02:17.619Z,23.00
2019-03-31T07:05:19.451Z,18.60
2019-03-31T07:08:21.639Z,18.70
2019-03-31T07:11:23.568Z,17.90
2019-03-31T07:14:25.556Z,17.63
2019-03-31T07:17:26.616Z,17.63
2019-03-31T07:20:28.548Z,18.93
2019-03-31T07:23:29.656Z,19.67
2019-03-31T07:26:30.809Z,17.70
2019-03-31T07:29:32.788Z,18.43
2019-03-31T07:32:33.916Z,19.30
2019-03-31T07:35:38.824Z,19.07
2019-03-31T07:38:39.689Z,18.10
2019-03-31T07:41:40.851Z,19.30
2019-03-31T07:44:42.852Z,19.07
2019-03-31T07:47:44.740Z,18.63
2019-03-31T07:50:45.983Z,19.70
2019-03-31T07:53:57.171Z,20.30
2019-03-31T07:56:58.392Z,19.77
2019-03-31T07:59:59.747Z,22.10
2019-03-31T08:03:01.836Z,20.90
2019-03-31T08:06:02.899Z,20.30
2019-03-31T08:09:05.208Z,20.30
2019-03-31T08:12:06.493Z,21.57
2019-03-31T08:15:08.636Z,22.90
2019-03-31T08:18:09.838Z,22.77
2019-03-31T08:21:11.896Z,22.60
2019-03-31T08:24:14.009Z,24.50
2019-03-31T08:27:15.947Z,24.37
2019-03-31T08:30:18.088Z,25.70
2019-03-31T08:33:20.179Z,31.10
2019-03-31T08:36:22.232Z,28.80
2019-03-31T08:39:23.555Z,29.90
2019-03-31T08:42:25.575Z,30.90
2019-03-31T08:45:30.373Z,30.20
2019-03-31T08:48:30.875Z,32.67
2019-03-31T08:51:31.948Z,32.90
2019-03-31T08:54:42.981Z,31.93
2019-03-31T08:57:44.124Z,32.67
2019-03-31T09:04:16.295Z,29.30
2019-03-31T09:07:17.711Z,30.70
2019-03-31T09:10:19.723Z,31.93
2019-03-31T09:13:22.835Z,33.27
2019-03-31T09:16:25.404Z,34.63
2019-03-31T09:19:27.244Z,38.03
2019-03-31T09:22:29.415Z,36.57
2019-03-31T09:25:30.468Z,36.93
2019-03-31T09:28:31.569Z,35.83
2019-03-31T09:31:33.801Z,36.20
2019-03-31T09:34:35.190Z,38.87
2019-03-31T09:37:36.288Z,36.60
2019-03-31T09:40:37.393Z,36.70
2019-03-31T09:43:39.408Z,36.40
2019-03-31T09:46:40.675Z,38.03
2019-03-31T09:49:43.758Z,36.90
2019-03-31T09:52:44.818Z,38.60
2019-03-31T09:55:56.123Z,39.17
2019-03-31T09:58:58.232Z,37.83
2019-03-31T10:01:59.980Z,38.37
2019-03-31T10:05:02.032Z,37.40
2019-03-31T10:08:03.031Z,37.03
2019-03-31T10:11:04.682Z,37.73
2019-03-31T10:14:06.213Z,37.63
2019-03-31T10:17:17.360Z,39.83
2019-03-31T10:20:19.424Z,38.63
2019-03-31T10:23:21.608Z,40.90
2019-03-31T10:26:31.767Z,39.67
2019-03-31T10:29:25.948Z,39.27
2019-03-31T10:32:26.997Z,40.60
2019-03-31T10:35:37.145Z,38.27
2019-03-31T10:38:47.267Z,38.43
2019-03-31T10:41:48.322Z,38.33
2019-03-31T10:44:49.428Z,36.17
2019-03-31T10:47:51.484Z,36.17
2019-03-31T10:50:52.620Z,35.10
2019-03-31T10:54:04.546Z,35.67
2019-03-31T10:57:05.883Z,33.97
2019-03-31T11:00:07.797Z,34.40
2019-03-31T11:03:08.758Z,34.90
2019-03-31T11:06:18.880Z,48.57
2019-03-31T11:09:29.940Z,33.33
2019-03-31T11:12:31.796Z,33.03
2019-03-31T11:15:33.904Z,33.97
2019-03-31T11:18:36.077Z,36.17
2019-03-31T11:21:42.692Z,35.80
2019-03-31T11:24:44.447Z,35.33
2019-03-31T11:27:46.272Z,35.00
2019-03-31T11:30:48.214Z,35.43
2019-03-31T11:33:50.204Z,34.03
2019-03-31T11:36:51.353Z,35.40
2019-03-31T11:39:52.399Z,37.83
2019-03-31T11:42:54.476Z,36.63
2019-03-31T11:45:56.560Z,37.60
2019-03-31T11:48:57.824Z,37.03
2019-03-31T11:51:58.968Z,38.57
2019-03-31T11:55:01.099Z,36.70
2019-03-31T11:58:02.206Z,39.07
2019-03-31T12:01:03.532Z,39.77
2019-03-31T12:04:05.572Z,36.83
2019-03-31T12:07:07.567Z,37.27
2019-03-31T12:10:08.602Z,37.77
2019-03-31T12:13:06.270Z,36.10
2019-03-31T12:16:07.832Z,37.33
2019-03-31T12:19:10.028Z,38.10
2019-03-31T12:22:11.100Z,40.43
2019-03-31T12:25:21.340Z,38.63
2019-03-31T12:28:32.520Z,38.73
2019-03-31T12:31:33.724Z,37.27
2019-03-31T12:34:34.869Z,38.47
2019-03-31T12:37:42.263Z,37.93
2019-03-31T12:40:40.084Z,37.87
2019-03-31T12:43:41.215Z,38.50
2019-03-31T12:46:51.424Z,37.70
2019-03-31T12:49:53.760Z,37.10
2019-03-31T12:52:56.120Z,35.80
2019-03-31T12:56:00.263Z,36.40
2019-03-31T12:59:01.535Z,36.10
2019-03-31T13:02:03.677Z,35.20
2019-03-31T13:05:04.896Z,37.17
2019-03-31T13:08:07.017Z,36.53
2019-03-31T13:11:08.008Z,36.27
2019-03-31T13:14:10.279Z,36.67
2019-03-31T13:17:11.404Z,38.40
2019-03-31T13:20:21.728Z,36.80
2019-03-31T13:23:23.632Z,36.90
2019-03-31T13:26:24.739Z,38.00
2019-03-31T13:29:38.351Z,37.40
2019-03-31T13:32:39.093Z,38.33
2019-03-31T13:35:53.120Z,38.67
2019-03-31T13:38:53.337Z,36.80
2019-03-31T13:42:03.584Z,39.40
2019-03-31T13:45:14.715Z,37.80
2019-03-31T13:48:15.828Z,37.60
2019-03-31T13:51:26.899Z,37.17
2019-03-31T13:54:28.229Z,37.00
2019-03-31T13:57:31.512Z,37.47
2019-03-31T14:00:33.551Z,36.67
2019-03-31T14:03:35.469Z,35.20
2019-03-31T14:06:38.334Z,35.33
2019-03-31T14:09:39.880Z,36.13
2019-03-31T14:12:40.865Z,36.67
2019-03-31T14:15:47.853Z,37.07
2019-03-31T14:18:49.788Z,34.53
2019-03-31T14:21:50.873Z,34.27
2019-03-31T14:25:02.022Z,34.50
2019-03-31T14:27:49.999Z,33.80
2019-03-31T14:30:51.340Z,37.07
2019-03-31T14:33:53.466Z,34.30
2019-03-31T14:36:54.716Z,34.60
2019-03-31T14:39:55.851Z,34.50
2019-03-31T14:43:06.962Z,33.53
2019-03-31T14:46:09.022Z,31.97
2019-03-31T14:49:11.040Z,30.37
2019-03-31T14:52:26.293Z,31.33
2019-03-31T14:55:15.308Z,31.10
2019-03-31T14:58:16.422Z,32.87
2019-03-31T15:01:21.099Z,32.87
2019-03-31T15:04:21.328Z,32.73
2019-03-31T15:07:31.811Z,32.90
2019-03-31T15:10:33.635Z,34.17
2019-03-31T15:13:35.616Z,32.63
2019-03-31T15:16:37.680Z,34.97
2019-03-31T15:19:39.543Z,35.30
2019-03-31T15:22:41.592Z,32.87
2019-03-31T15:25:43.577Z,32.20
2019-03-31T15:28:45.743Z,32.93
2019-03-31T15:31:46.856Z,31.77
2019-03-31T15:34:48.860Z,33.13
2019-03-31T15:37:50.875Z,32.60
2019-03-31T15:40:52.704Z,32.57
2019-03-31T15:43:54.582Z,32.33
2019-03-31T15:46:55.720Z,34.13
2019-03-31T15:50:06.804Z,33.03
2019-03-31T15:53:09.848Z,34.13
2019-03-31T15:56:11.943Z,33.00
2019-03-31T15:59:13.224Z,33.70
2019-03-31T16:02:25.878Z,32.10
2019-03-31T16:05:27.453Z,31.70
2019-03-31T16:08:29.588Z,30.07
2019-03-31T16:11:31.447Z,30.20
2019-03-31T16:14:32.484Z,28.90
2019-03-31T16:17:42.670Z,28.97
2019-03-31T16:20:44.716Z,30.10
2019-03-31T16:23:45.944Z,28.00
2019-03-31T16:26:48.171Z,28.37
2019-03-31T16:29:50.300Z,26.90
2019-03-31T16:32:51.532Z,28.40
2019-03-31T16:35:53.495Z,28.47
2019-03-31T16:38:54.488Z,29.17
2019-03-31T16:41:56.496Z,29.10
2019-03-31T16:44:58.680Z,28.90
2019-03-31T16:47:59.596Z,28.03
2019-03-31T16:51:06.808Z,26.97
2019-03-31T16:54:07.824Z,28.63
2019-03-31T16:57:18.912Z,28.40
2019-03-31T17:00:21.032Z,26.63
2019-03-31T17:03:31.968Z,28.93
2019-03-31T17:06:33.024Z,28.43
2019-03-31T17:09:34.168Z,29.70
2019-03-31T17:12:41.256Z,29.70
2019-03-31T17:15:42.228Z,31.23
2019-03-31T17:18:53.196Z,32.40
2019-03-31T17:21:54.312Z,28.80
2019-03-31T17:25:05.311Z,27.93
2019-03-31T17:28:10.176Z,28.40
2019-03-31T17:31:11.351Z,28.33
2019-03-31T17:34:12.269Z,28.83
2019-03-31T17:37:22.412Z,29.47
2019-03-31T17:40:23.597Z,29.00
2019-03-31T17:43:24.736Z,28.37
2019-03-31T17:46:35.023Z,32.13
2019-03-31T17:49:36.956Z,28.70
2019-03-31T17:52:38.135Z,28.30
2019-03-31T17:55:41.162Z,29.47
2019-03-31T17:58:42.281Z,28.27
2019-03-31T18:01:43.425Z,28.20
2019-03-31T18:04:53.437Z,44.97
2019-03-31T18:07:55.126Z,27.60
2019-03-31T18:10:56.290Z,28.33
2019-03-31T18:13:57.372Z,31.80
2019-03-31T18:17:07.449Z,27.97
2019-03-31T18:20:08.561Z,26.80
2019-03-31T18:23:09.654Z,24.53
2019-03-31T18:26:11.521Z,23.30
2019-03-31T18:29:12.682Z,24.37
2019-03-31T18:32:13.952Z,22.13
2019-03-31T18:35:16.767Z,24.60
2019-03-31T18:38:20.012Z,22.57
2019-03-31T18:41:21.172Z,22.67
2019-03-31T18:44:22.162Z,20.60
2019-03-31T18:47:33.396Z,20.40
2019-03-31T18:50:35.355Z,18.60
2019-03-31T18:54:00.163Z,17.07
2019-03-31T18:57:33.519Z,17.87
2019-03-31T19:00:57.696Z,16.47
2019-03-31T19:04:18.971Z,16.90
2019-03-31T19:07:40.223Z,16.10
2019-03-31T19:11:02.094Z,16.40
2019-03-31T19:14:23.770Z,15.70
2019-03-31T19:17:41.544Z,16.40
2019-03-31T19:21:11.307Z,16.50
2019-03-31T19:24:17.888Z,16.07
2019-03-31T19:27:32.169Z,15.03
2019-03-31T19:30:53.302Z,15.47
2019-03-31T19:34:15.611Z,15.17
2019-03-31T19:37:42.736Z,15.90
2019-03-31T19:41:11.950Z,23.47
2019-03-31T19:44:30.491Z,14.53
2019-03-31T19:47:45.765Z,15.63
2019-03-31T19:51:07.617Z,15.53
2019-03-31T19:54:34.909Z,15.20
2019-03-31T19:58:07.327Z,15.23
2019-03-31T20:01:33.648Z,16.23
2019-03-31T20:04:54.610Z,14.23
2019-03-31T20:08:21.795Z,14.37
2019-03-31T20:11:45.977Z,14.47
2019-03-31T20:15:07.642Z,15.23
2019-03-31T20:18:31.610Z,14.43
2019-03-31T20:21:42.483Z,14.93
2019-03-31T20:25:01.179Z,14.40
2019-03-31T20:28:24.296Z,13.83
2019-03-31T20:31:53.747Z,14.30
2019-03-31T20:35:24.021Z,14.40
2019-03-31T20:38:35.456Z,14.50
2019-03-31T20:42:00.330Z,13.80
2019-03-31T20:45:01.740Z,14.90
2019-03-31T20:48:03.745Z,13.40
2019-03-31T20:51:05.960Z,14.07
2019-03-31T20:54:10.072Z,13.63
2019-03-31T20:57:11.925Z,13.43
2019-03-31T21:00:13.237Z,13.80
2019-03-31T21:03:15.263Z,13.70
2019-03-31T21:06:17.737Z,13.73
2019-03-31T21:09:19.560Z,14.40
2019-03-31T21:12:21.732Z,13.60
2019-03-31T21:15:23.891Z,13.53
2019-03-31T21:18:25.138Z,13.23
2019-03-31T21:21:36.141Z,13.73
2019-03-31T21:24:47.296Z,13.70
2019-03-31T21:27:59.050Z,13.67
2019-03-31T21:31:01.982Z,13.80
2019-03-31T21:34:06.383Z,15.43
2019-03-31T21:37:09.145Z,16.20
2019-03-31T21:40:13.223Z,15.00
2019-03-31T21:43:15.603Z,19.10
2019-03-31T21:46:17.051Z,16.10
2019-03-31T21:49:18.176Z,14.30
2019-03-31T21:52:19.313Z,13.53
2019-03-31T21:55:21.307Z,14.50
2019-03-31T21:58:23.418Z,13.90
2019-03-31T22:01:25.440Z,14.47
2019-03-31T22:04:26.576Z,14.00
2019-03-31T22:07:27.770Z,14.13
2019-03-31T22:10:38.911Z,13.93
2019-03-31T22:13:40.224Z,14.20
2019-03-31T22:16:43.205Z,14.30
2019-03-31T22:19:45.281Z,15.70
2019-03-31T22:22:46.285Z,14.40
2019-03-31T22:25:47.396Z,14.10
2019-03-31T22:28:58.525Z,14.33
2019-03-31T22:32:00.627Z,14.20
2019-03-31T22:35:01.629Z,14.67
2019-03-31T22:38:12.888Z,14.70
2019-03-31T22:41:15.080Z,15.03
2019-03-31T22:44:15.967Z,14.90
2019-03-31T22:47:26.835Z,14.23
2019-03-31T22:50:28.050Z,13.80
2019-03-31T22:53:29.151Z,13.50
2019-03-31T22:56:30.306Z,14.67
2019-03-31T22:59:40.424Z,14.03
2019-03-31T23:02:41.563Z,13.90
2019-03-31T23:05:42.787Z,13.80
2019-03-31T23:08:44.009Z,13.50
2019-03-31T23:11:46.031Z,14.10
2019-03-31T23:14:48.028Z,15.20
2019-03-31T23:17:49.123Z,13.80
2019-03-31T23:21:00.288Z,13.33
2019-03-31T23:24:02.335Z,14.40
2019-03-31T23:27:04.286Z,14.17
2019-03-31T23:30:07.482Z,14.47
2019-03-31T23:33:09.191Z,13.80
2019-03-31T23:36:11.300Z,14.60
2019-03-31T23:39:13.171Z,13.90
2019-03-31T23:42:15.571Z,14.43
2019-03-31T23:45:19.510Z,13.20
2019-03-31T23:48:20.700Z,14.23
2019-03-31T23:51:31.664Z,14.67
2019-03-31T23:54:32.804Z,14.40
2019-03-31T23:57:40.677Z,17.73
